createdAt,value
2024-03-13T00:01:08.973Z,96312.06
2024-03-13T00:03:37.798Z,96298.00
2024-03-13T00:06:05.669Z,96310.38
2024-03-13T00:08:32.763Z,96310.63
2024-03-13T00:10:59.884Z,96304.78
2024-03-13T00:13:29.104Z,96308.13
2024-03-13T00:15:59.902Z,96309.97
2024-03-13T00:18:26.916Z,96312.47
2024-03-13T00:20:53.931Z,96309.97
2024-03-13T00:23:20.908Z,96301.13
2024-03-13T00:25:48.203Z,96312.88
2024-03-13T00:28:15.174Z,96310.78
2024-03-13T00:30:42.555Z,96315.59
2024-03-13T00:33:10.051Z,96305.19
2024-03-13T00:35:37.849Z,96299.78
2024-03-13T00:38:05.319Z,96304.34
2024-03-13T00:40:33.667Z,96301.78
2024-03-13T00:43:00.767Z,96300.19
2024-03-13T00:45:28.483Z,96296.13
2024-03-13T00:47:55.768Z,96293.34
2024-03-13T00:50:24.144Z,96289.63
2024-03-13T00:52:51.859Z,96291.59
2024-03-13T00:55:19.160Z,96297.28
2024-03-13T00:57:47.854Z,96279.66
2024-03-13T01:00:19.560Z,96281.00
2024-03-13T01:02:47.022Z,96289.00
2024-03-13T01:05:18.190Z,96278.44
2024-03-13T01:07:49.901Z,96291.25
2024-03-13T01:10:17.874Z,96284.44
2024-03-13T01:12:45.564Z,96288.53
2024-03-13T01:15:16.207Z,96286.84
2024-03-13T01:17:43.719Z,96266.75
2024-03-13T01:20:16.382Z,96282.75
2024-03-13T01:22:45.324Z,96280.22
2024-03-13T01:25:12.634Z,96282.38
2024-03-13T01:27:41.299Z,96272.56
2024-03-13T01:30:09.652Z,96273.47
2024-03-13T01:32:37.019Z,96274.72
2024-03-13T01:35:04.193Z,96273.88
2024-03-13T01:37:49.890Z,96270.69
2024-03-13T01:40:25.117Z,96259.28
2024-03-13T01:43:11.719Z,96265.47
2024-03-13T01:46:06.341Z,96264.38
2024-03-13T01:48:52.913Z,96271.81
2024-03-13T01:51:39.747Z,96265.91
2024-03-13T01:54:27.294Z,96271.72
2024-03-13T01:57:01.921Z,96273.41
2024-03-13T01:59:50.242Z,96267.16
2024-03-13T02:02:28.639Z,96275.31
2024-03-13T02:04:56.297Z,96272.31
2024-03-13T02:07:25.400Z,96270.16
2024-03-13T02:09:52.990Z,96278.81
2024-03-13T02:12:19.993Z,96270.31
2024-03-13T02:14:47.097Z,96264.25
2024-03-13T02:17:14.661Z,96244.38
2024-03-13T02:19:41.762Z,96263.41
2024-03-13T02:22:09.040Z,96261.56
2024-03-13T02:24:36.150Z,96267.34
2024-03-13T02:27:13.574Z,96266.91
2024-03-13T02:29:42.846Z,96273.09
2024-03-13T02:32:12.418Z,96274.50
2024-03-13T02:34:42.800Z,96271.06
2024-03-13T02:37:09.926Z,96279.41
2024-03-13T02:39:37.390Z,96276.97
2024-03-13T02:42:04.516Z,96273.81
2024-03-13T02:44:31.628Z,96277.53
2024-03-13T02:46:58.663Z,96278.63
2024-03-13T02:49:25.847Z,96278.06
2024-03-13T02:51:53.236Z,96274.25
2024-03-13T02:54:20.229Z,96282.56
2024-03-13T02:56:47.917Z,96275.00
2024-03-13T02:59:15.355Z,96267.66
2024-03-13T03:01:42.476Z,96265.66
2024-03-13T03:04:10.092Z,96273.06
2024-03-13T03:06:37.208Z,96274.75
2024-03-13T03:09:05.222Z,96269.59
2024-03-13T03:11:32.463Z,96266.50
2024-03-13T03:13:59.820Z,96264.41
2024-03-13T03:16:26.859Z,96265.91
2024-03-13T03:18:54.563Z,96265.75
2024-03-13T03:21:24.116Z,96259.41
2024-03-13T03:23:51.363Z,96253.91
2024-03-13T03:26:21.811Z,96264.56
2024-03-13T03:28:49.131Z,96270.75
2024-03-13T03:31:16.169Z,96259.91
2024-03-13T03:33:43.426Z,96269.00
2024-03-13T03:36:10.520Z,96272.09
2024-03-13T03:38:37.471Z,96264.81
2024-03-13T03:41:04.520Z,96271.34
2024-03-13T03:43:31.508Z,96276.75
2024-03-13T03:45:58.617Z,96279.00
2024-03-13T03:48:25.828Z,96279.34
2024-03-13T03:50:52.867Z,96279.03
2024-03-13T03:53:19.927Z,96283.47
2024-03-13T03:55:47.392Z,96279.50
2024-03-13T03:58:14.441Z,96282.84
2024-03-13T04:00:41.554Z,96282.06
2024-03-13T04:03:10.419Z,96280.22
2024-03-13T04:05:37.448Z,96284.16
2024-03-13T04:08:05.778Z,96275.81
2024-03-13T04:10:33.238Z,96271.31
2024-03-13T04:13:01.414Z,96282.75
2024-03-13T04:15:28.532Z,96279.41
2024-03-13T04:17:55.741Z,96279.09
2024-03-13T04:20:23.585Z,96283.25
2024-03-13T04:22:50.965Z,96281.28
2024-03-13T04:25:19.950Z,96282.94
2024-03-13T04:27:48.489Z,96282.78
2024-03-13T04:30:15.913Z,96287.75
2024-03-13T04:32:43.404Z,96290.19
2024-03-13T04:35:10.495Z,96286.13
2024-03-13T04:37:40.402Z,96288.69
2024-03-13T04:40:10.762Z,96282.84
2024-03-13T04:42:38.199Z,96259.66
2024-03-13T04:45:05.792Z,96279.00
2024-03-13T04:47:33.733Z,96278.34
2024-03-13T04:50:03.306Z,96278.25
2024-03-13T04:52:31.109Z,96278.41
2024-03-13T04:54:58.156Z,96261.84
2024-03-13T04:57:25.198Z,96279.25
2024-03-13T04:59:52.226Z,96279.25
2024-03-13T05:02:19.370Z,96277.66
2024-03-13T05:04:46.402Z,96279.59
2024-03-13T05:07:13.919Z,96285.19
2024-03-13T05:09:46.324Z,96283.25
2024-03-13T05:12:13.715Z,96281.91
2024-03-13T05:14:41.258Z,96287.84
2024-03-13T05:17:10.559Z,96291.41
2024-03-13T05:19:37.770Z,96298.53
2024-03-13T05:22:07.717Z,96300.13
2024-03-13T05:24:34.844Z,96298.09
2024-03-13T05:27:02.021Z,96291.09
2024-03-13T05:29:29.029Z,96296.78
2024-03-13T05:31:56.303Z,96294.69
2024-03-13T05:34:26.227Z,96298.63
2024-03-13T05:36:53.282Z,96302.78
2024-03-13T05:39:20.372Z,96301.03
2024-03-13T05:48:29.031Z,96307.78
2024-03-13T05:50:56.039Z,96310.63
2024-03-13T06:00:10.561Z,96315.75
2024-03-13T06:02:44.286Z,96316.59
2024-03-13T06:05:11.393Z,96317.94
2024-03-13T06:07:39.804Z,96297.38
2024-03-13T06:10:07.558Z,96306.50
2024-03-13T06:12:35.967Z,96315.19
2024-03-13T06:15:09.682Z,96313.50
2024-03-13T06:17:37.011Z,96290.13
2024-03-13T06:20:05.376Z,96313.41
2024-03-13T06:22:32.477Z,96320.28
2024-03-13T06:25:01.978Z,96309.63
2024-03-13T06:27:30.390Z,96315.94
2024-03-13T06:29:58.233Z,96319.09
2024-03-13T06:32:26.775Z,96321.31
2024-03-13T06:34:56.156Z,96319.13
2024-03-13T06:37:26.706Z,96328.22
2024-03-13T06:39:54.940Z,96345.44
2024-03-13T06:42:22.065Z,96320.47
2024-03-13T06:44:54.578Z,96325.28
2024-03-13T06:47:22.112Z,96335.22
2024-03-13T06:49:49.327Z,96331.28
2024-03-13T06:52:16.542Z,96320.19
2024-03-13T06:54:45.441Z,96347.59
2024-03-13T06:57:13.916Z,96340.38
2024-03-13T06:59:43.035Z,96326.38
2024-03-13T07:02:14.840Z,96331.50
2024-03-13T07:04:42.156Z,96352.03
2024-03-13T07:07:09.303Z,96323.91
2024-03-13T07:09:38.286Z,96357.03
2024-03-13T07:12:05.939Z,96363.47
2024-03-13T07:14:33.045Z,96362.53
2024-03-13T07:17:00.113Z,96311.19
2024-03-13T07:19:27.277Z,96359.66
2024-03-13T07:21:54.541Z,96362.31
2024-03-13T07:24:21.617Z,96370.56
2024-03-13T07:26:48.531Z,96355.50
2024-03-13T07:29:15.483Z,96358.25
2024-03-13T07:31:43.099Z,96308.34
2024-03-13T07:34:11.697Z,96345.91
2024-03-13T07:36:39.897Z,96358.16
2024-03-13T07:39:12.750Z,96371.44
2024-03-13T07:41:41.238Z,96375.16
2024-03-13T07:44:09.077Z,96343.91
2024-03-13T07:46:36.434Z,96380.97
2024-03-13T07:49:04.370Z,96378.66
2024-03-13T07:51:31.972Z,96381.75
2024-03-13T07:53:59.745Z,96382.44
2024-03-13T07:56:26.982Z,96378.88
2024-03-13T07:58:54.445Z,96376.78
2024-03-13T08:01:23.625Z,96395.88
2024-03-13T08:03:50.866Z,96385.47
2024-03-13T09:06:45.185Z,96375.25
2024-03-13T09:09:13.224Z,96377.59
2024-03-13T09:11:42.150Z,96376.72
2024-03-13T09:14:10.741Z,96381.69
2024-03-13T09:16:38.006Z,96388.16
2024-03-13T09:19:05.631Z,96387.75
2024-03-13T09:21:32.794Z,96392.69
2024-03-13T09:24:00.237Z,96387.06
2024-03-13T09:26:28.192Z,96386.63
2024-03-13T09:28:57.309Z,96377.78
2024-03-13T09:31:25.620Z,96404.06
2024-03-13T09:33:53.164Z,96397.38
2024-03-13T09:36:20.671Z,96383.47
2024-03-13T09:38:47.811Z,96385.25
2024-03-13T09:41:15.248Z,96375.94
2024-03-13T09:43:42.544Z,96388.28
2024-03-13T09:46:10.779Z,96396.66
2024-03-13T09:48:40.991Z,96377.91
2024-03-13T09:51:11.316Z,96331.78
2024-03-13T10:00:24.624Z,96382.50
2024-03-13T10:02:52.627Z,96380.84
2024-03-13T10:05:21.034Z,96351.69
2024-03-13T10:07:50.995Z,96371.63
2024-03-13T10:10:30.277Z,96364.50
2024-03-13T10:12:58.975Z,96370.84
2024-03-13T10:15:27.154Z,96362.63
2024-03-13T10:17:57.135Z,96354.59
2024-03-13T10:20:30.087Z,96357.63
2024-03-13T10:23:00.987Z,96349.31
2024-03-13T10:25:30.750Z,96356.34
2024-03-13T10:27:58.022Z,96337.50
2024-03-13T10:30:26.411Z,96347.41
2024-03-13T10:32:55.622Z,96356.63
2024-03-13T10:35:27.018Z,96358.03
2024-03-13T10:37:55.124Z,96331.56
2024-03-13T10:40:25.956Z,96355.53
2024-03-13T10:42:53.707Z,96356.94
2024-03-13T10:45:20.730Z,96346.94
2024-03-13T10:47:50.085Z,96341.97
2024-03-13T10:50:17.239Z,96351.81
2024-03-13T10:52:45.746Z,96340.66
2024-03-13T10:55:13.621Z,96334.81
2024-03-13T10:57:42.978Z,96335.47
2024-03-13T11:00:18.572Z,96319.09
2024-03-13T11:02:45.694Z,96332.34
2024-03-13T11:05:12.809Z,96338.78
2024-03-13T11:07:39.935Z,96327.31
2024-03-13T11:10:16.234Z,96341.44
2024-03-13T11:12:52.436Z,96327.47
2024-03-13T11:15:25.865Z,96336.34
2024-03-13T11:18:04.075Z,96333.13
2024-03-13T11:21:03.700Z,96335.75
2024-03-13T11:23:35.988Z,96335.97
2024-03-13T11:26:05.409Z,96319.66
2024-03-13T11:28:35.014Z,96335.03
2024-03-13T11:31:02.756Z,96336.53
2024-03-13T11:33:30.713Z,96328.81
2024-03-13T11:35:59.713Z,96271.75
2024-03-13T11:45:17.318Z,96328.94
2024-03-13T11:47:49.214Z,96326.72
2024-03-13T11:50:16.558Z,96311.31
2024-03-13T11:52:55.776Z,96315.91
2024-03-13T11:55:27.252Z,96254.66
2024-03-13T11:58:32.435Z,96306.31
2024-03-13T12:01:00.725Z,96297.47
2024-03-13T12:03:34.784Z,96294.31
2024-03-13T12:06:01.847Z,96300.00
2024-03-13T12:08:29.225Z,96294.22
2024-03-13T12:10:56.569Z,96290.69
2024-03-13T12:13:23.869Z,96288.81
2024-03-13T12:15:50.907Z,96292.00
2024-03-13T12:18:18.166Z,96283.66
2024-03-13T12:20:47.299Z,96288.59
2024-03-13T12:23:16.890Z,96288.69
2024-03-13T12:25:46.628Z,96294.06
2024-03-13T12:28:17.959Z,96287.78
2024-03-13T12:30:50.192Z,96271.88
2024-03-13T12:33:17.734Z,96282.16
2024-03-13T12:35:50.528Z,96292.13
2024-03-13T12:38:17.701Z,96281.75
2024-03-13T12:40:46.152Z,96303.06
2024-03-13T12:43:15.570Z,96294.06
2024-03-13T12:45:44.007Z,96296.69
2024-03-13T12:48:11.166Z,96260.31
2024-03-13T12:50:38.389Z,96295.19
2024-03-13T12:53:06.356Z,96298.34
2024-03-13T12:55:34.021Z,96292.13
2024-03-13T12:58:06.724Z,96294.41
2024-03-13T13:00:37.222Z,96304.56
2024-03-13T13:03:05.843Z,96298.56
2024-03-13T13:05:34.472Z,96298.63
2024-03-13T13:08:01.606Z,96294.59
2024-03-13T13:10:28.702Z,96284.19
2024-03-13T13:12:57.210Z,96280.34
2024-03-13T13:15:26.098Z,96287.94
2024-03-13T13:17:53.831Z,96292.13
2024-03-13T13:20:21.567Z,96283.66
2024-03-13T13:22:49.075Z,96289.81
2024-03-13T13:25:21.290Z,96281.69
2024-03-13T13:27:52.656Z,96279.53
2024-03-13T13:30:20.383Z,96268.78
2024-03-13T13:32:49.213Z,96282.03
2024-03-13T13:35:16.501Z,96286.28
2024-03-13T13:37:45.223Z,96261.75
2024-03-13T13:40:21.253Z,96289.63
2024-03-13T13:42:53.643Z,96283.22
2024-03-13T13:45:24.328Z,96285.22
2024-03-13T13:47:55.602Z,96271.53
2024-03-13T13:50:23.377Z,96271.13
2024-03-13T13:52:50.548Z,96277.69
2024-03-13T13:55:19.056Z,96287.94
2024-03-13T13:57:52.700Z,96276.22
2024-03-13T14:00:24.527Z,96290.03
2024-03-13T14:02:54.937Z,96280.09
2024-03-13T14:05:23.064Z,96288.91
2024-03-13T14:07:52.881Z,96279.66
2024-03-13T14:10:20.517Z,96280.25
2024-03-13T14:12:49.830Z,96304.50
2024-03-13T14:15:21.309Z,96301.31
2024-03-13T14:17:51.401Z,96299.66
2024-03-13T14:20:23.061Z,96287.25
2024-03-13T14:22:55.798Z,96292.69
2024-03-13T14:25:27.845Z,96287.19
2024-03-13T14:27:55.939Z,96295.06
2024-03-13T14:30:24.039Z,96290.63
2024-03-13T14:32:51.970Z,96293.84
2024-03-13T14:35:20.916Z,96299.22
2024-03-13T14:37:48.450Z,96291.41
2024-03-13T14:40:19.029Z,96283.22
2024-03-13T14:42:48.198Z,96293.22
2024-03-13T14:45:17.512Z,96299.25
2024-03-13T14:47:46.986Z,96304.56
2024-03-13T14:50:19.749Z,96309.75
2024-03-13T14:52:55.832Z,96306.03
2024-03-13T14:55:30.677Z,96306.25
2024-03-13T14:57:58.531Z,96306.13
2024-03-13T15:00:27.218Z,96313.44
2024-03-13T15:02:55.029Z,96313.53
2024-03-13T15:05:24.861Z,96326.41
2024-03-13T15:07:51.977Z,96326.09
2024-03-13T15:10:23.976Z,96325.50
2024-03-13T15:12:52.024Z,96329.00
2024-03-13T15:15:20.353Z,96323.50
2024-03-13T15:17:51.613Z,96328.69
2024-03-13T15:20:19.677Z,96333.41
2024-03-13T15:22:46.706Z,96344.91
2024-03-13T15:25:14.029Z,96346.06
2024-03-13T15:27:41.154Z,96332.97
2024-03-13T15:30:13.609Z,96351.50
2024-03-13T15:32:43.312Z,96354.41
2024-03-13T15:35:10.583Z,96363.44
2024-03-13T15:37:37.633Z,96356.34
2024-03-13T15:40:12.803Z,96357.09
2024-03-13T15:42:41.562Z,96360.31
2024-03-13T15:45:12.554Z,96354.81
2024-03-13T15:47:43.120Z,96368.56
2024-03-13T15:50:24.091Z,96375.31
2024-03-13T15:52:56.305Z,96372.38
2024-03-13T15:55:23.505Z,96380.75
2024-03-13T15:57:50.490Z,96367.53
2024-03-13T16:00:19.755Z,96387.63
2024-03-13T16:02:53.062Z,96388.94
2024-03-13T16:05:22.151Z,96389.28
2024-03-13T16:08:02.152Z,96366.50
2024-03-13T16:10:29.395Z,96392.31
2024-03-13T16:12:56.557Z,96391.66
2024-03-13T16:15:24.146Z,96394.69
2024-03-13T16:17:51.433Z,96405.38
2024-03-13T16:20:18.522Z,96405.13
2024-03-13T16:22:48.633Z,96400.72
2024-03-13T16:25:21.016Z,96404.06
2024-03-13T16:27:48.210Z,96412.31
2024-03-13T16:30:20.451Z,96419.19
2024-03-13T16:32:48.487Z,96416.75
2024-03-13T16:35:15.953Z,96419.25
2024-03-13T16:37:43.485Z,96418.06
2024-03-13T16:40:11.748Z,96420.09
2024-03-13T16:42:39.210Z,96382.69
2024-03-13T16:45:06.411Z,96410.81
2024-03-13T16:47:34.205Z,96434.03
2024-03-13T16:50:04.646Z,96434.91
2024-03-13T16:52:33.710Z,96436.88
2024-03-13T16:55:00.960Z,96436.13
2024-03-13T16:57:27.945Z,96442.91
2024-03-13T16:59:55.746Z,96439.78
2024-03-13T17:02:22.753Z,96427.94
2024-03-13T17:04:49.695Z,96437.00
2024-03-13T17:07:16.715Z,96438.69
2024-03-13T17:09:44.108Z,96443.88
2024-03-13T17:12:11.205Z,96449.25
2024-03-13T17:14:38.264Z,96448.41
2024-03-13T17:17:05.404Z,96449.97
2024-03-13T17:19:32.438Z,96457.13
2024-03-13T17:21:59.513Z,96458.88
2024-03-13T17:24:26.568Z,96454.41
2024-03-13T17:26:56.844Z,96452.38
2024-03-13T17:29:30.110Z,96462.03
2024-03-13T17:31:58.531Z,96459.06
2024-03-13T17:34:26.176Z,96461.66
2024-03-13T17:36:53.208Z,96473.34
2024-03-13T17:39:20.286Z,96471.94
2024-03-13T17:41:47.385Z,96474.44
2024-03-13T17:44:19.097Z,96418.97
2024-03-13T17:46:46.417Z,96481.38
2024-03-13T17:49:13.684Z,96478.03
2024-03-13T17:51:40.827Z,96479.06
2024-03-13T17:54:08.226Z,96487.69
2024-03-13T17:56:35.725Z,96472.31
2024-03-13T17:59:02.915Z,96489.00
2024-03-13T18:01:32.444Z,96489.91
2024-03-13T18:03:59.568Z,96495.56
2024-03-13T18:06:26.608Z,96497.81
2024-03-13T18:08:54.578Z,96504.19
2024-03-13T18:11:22.000Z,96502.63
2024-03-13T18:13:49.120Z,96502.06
2024-03-13T18:16:17.214Z,96504.09
2024-03-13T18:18:44.451Z,96508.75
2024-03-13T18:21:12.825Z,96500.50
2024-03-13T18:23:41.101Z,96500.31
2024-03-13T18:26:12.247Z,96512.81
2024-03-13T18:28:39.995Z,96514.94
2024-03-13T18:31:10.492Z,96513.56
2024-03-13T18:33:37.959Z,96511.72
2024-03-13T18:36:05.698Z,96513.69
2024-03-13T18:38:32.822Z,96517.91
2024-03-13T18:41:00.481Z,96520.63
2024-03-13T18:43:27.425Z,96525.88
2024-03-13T18:45:54.450Z,96518.06
2024-03-13T18:48:21.455Z,96510.84
2024-03-13T18:50:49.116Z,96511.72
2024-03-13T18:53:17.457Z,96526.13
2024-03-13T18:55:44.933Z,96518.94
2024-03-13T18:58:13.398Z,96499.09
2024-03-13T19:00:40.640Z,96519.41
2024-03-13T19:03:07.674Z,96521.88
2024-03-13T19:05:34.816Z,96503.94
2024-03-13T19:08:01.878Z,96523.16
2024-03-13T19:10:28.980Z,96534.72
2024-03-13T19:12:58.468Z,96519.50
2024-03-13T19:15:29.003Z,96521.16
2024-03-13T19:17:58.717Z,96523.34
2024-03-13T19:20:25.883Z,96530.28
2024-03-13T19:22:52.950Z,96520.16
2024-03-13T19:25:20.161Z,96528.09
2024-03-13T19:27:47.159Z,96527.19
2024-03-13T19:30:14.484Z,96509.63
2024-03-13T19:32:42.380Z,96528.50
2024-03-13T19:35:09.465Z,96529.03
2024-03-13T19:37:36.506Z,96532.19
2024-03-13T19:40:06.805Z,96530.34
2024-03-13T19:42:34.123Z,96526.09
2024-03-13T19:45:01.219Z,96533.63
2024-03-13T19:47:30.832Z,96531.22
2024-03-13T19:50:00.802Z,96530.03
2024-03-13T19:52:32.946Z,96526.44
2024-03-13T19:55:00.204Z,96526.78
2024-03-13T19:57:27.501Z,96528.19
2024-03-13T19:59:55.332Z,96527.63
2024-03-13T20:02:25.325Z,96529.03
2024-03-13T20:04:52.495Z,96536.72
2024-03-13T20:07:19.456Z,96547.41
2024-03-13T20:09:46.533Z,96539.53
2024-03-13T20:12:14.532Z,96544.19
2024-03-13T20:14:41.624Z,96530.50
2024-03-13T20:17:08.895Z,96537.88
2024-03-13T20:19:36.119Z,96534.97
2024-03-13T20:22:03.105Z,96538.88
2024-03-13T20:24:30.213Z,96533.97
2024-03-13T20:26:57.336Z,96524.69
2024-03-13T20:29:24.395Z,96533.97
2024-03-13T20:31:51.353Z,96539.91
2024-03-13T20:34:18.357Z,96531.78
2024-03-13T20:36:45.342Z,96540.22
2024-03-13T20:39:13.237Z,96532.88
2024-03-13T20:41:40.342Z,96518.91
2024-03-13T20:44:07.564Z,96541.41
2024-03-13T20:46:35.920Z,96539.78
2024-03-13T20:49:05.264Z,96540.56
2024-03-13T20:51:35.093Z,96533.03
2024-03-13T20:54:06.319Z,96519.34
2024-03-13T20:56:33.324Z,96530.69
2024-03-13T20:59:00.353Z,96539.03
2024-03-13T21:01:28.070Z,96537.59
2024-03-13T21:03:56.346Z,96506.31
2024-03-13T21:06:23.530Z,96534.72
2024-03-13T21:08:51.572Z,96539.47
2024-03-13T21:11:18.710Z,96526.78
2024-03-13T21:13:45.656Z,96533.03
2024-03-13T21:16:17.872Z,96535.56
2024-03-13T21:18:45.030Z,96535.56
2024-03-13T21:21:12.234Z,96523.94
2024-03-13T21:23:39.190Z,96527.81
2024-03-13T21:26:09.960Z,96509.88
2024-03-13T21:28:37.758Z,96514.03
2024-03-13T21:31:08.190Z,96516.22
2024-03-13T21:33:36.767Z,96524.97
2024-03-13T21:36:04.728Z,96529.09
2024-03-13T21:38:31.739Z,96510.84
2024-03-13T21:41:00.201Z,96528.38
2024-03-13T21:43:32.037Z,96532.56
2024-03-13T21:46:00.517Z,96532.00
2024-03-13T21:48:29.565Z,96525.94
2024-03-13T21:50:56.777Z,96527.25
2024-03-13T21:53:23.934Z,96529.97
2024-03-13T21:55:51.207Z,96527.81
2024-03-13T21:58:19.251Z,96531.34
2024-03-13T22:00:46.641Z,96528.75
2024-03-13T22:03:13.807Z,96527.16
2024-03-13T22:05:40.777Z,96528.16
2024-03-13T22:08:07.804Z,96536.00
2024-03-13T22:10:39.779Z,96525.41
2024-03-13T22:13:07.192Z,96524.47
2024-03-13T22:15:34.218Z,96538.03
2024-03-13T22:21:29.871Z,96539.78
2024-03-13T22:23:56.884Z,96541.38
2024-03-13T22:26:23.889Z,96519.63
2024-03-13T22:28:50.919Z,96531.84
2024-03-13T22:31:17.881Z,96538.03
2024-03-13T22:33:45.017Z,96527.06
2024-03-13T22:36:16.278Z,96545.78
2024-03-13T22:38:43.666Z,96542.81
2024-03-13T22:41:10.788Z,96529.47
2024-03-13T22:43:37.837Z,96538.50
2024-03-13T22:46:05.682Z,96537.50
2024-03-13T22:48:33.067Z,96525.75
2024-03-13T22:51:00.625Z,96536.47
2024-03-13T22:53:27.733Z,96532.00
2024-03-13T22:55:54.861Z,96547.19
2024-03-13T22:58:22.407Z,96537.31
2024-03-13T23:00:59.066Z,96544.50
2024-03-13T23:03:27.637Z,96546.28
2024-03-13T23:05:54.976Z,96543.84
2024-03-13T23:08:22.072Z,96544.91
2024-03-13T23:10:49.150Z,96541.13
2024-03-13T23:13:18.228Z,96500.66
2024-03-13T23:15:47.032Z,96545.69
2024-03-13T23:18:16.962Z,96549.91
2024-03-13T23:20:44.164Z,96544.31
2024-03-13T23:23:11.963Z,96548.41
2024-03-13T23:25:39.379Z,96546.69
2024-03-13T23:28:10.124Z,96541.94
2024-03-13T23:30:37.117Z,96541.84
2024-03-13T23:33:04.861Z,96544.09
2024-03-13T23:35:32.127Z,96544.19
2024-03-13T23:38:01.821Z,96546.97
2024-03-13T23:40:29.602Z,96556.56
2024-03-13T23:42:56.954Z,96548.34
2024-03-13T23:45:27.898Z,96566.00
2024-03-13T23:47:55.908Z,96548.06
2024-03-13T23:50:25.893Z,96555.28
2024-03-13T23:52:52.979Z,96530.31
2024-03-13T23:55:20.235Z,96556.38
2024-03-13T23:57:47.527Z,96539.00
